sensor_id;sensor_type;location;lat;lon;timestamp;P1;durP1;ratioP1;P2;durP2;ratioP2
39958;SDS011;25639;53.634;9.880;2023-07-13T00:00:47;8.43;;;3.05;;
39958;SDS011;25639;53.634;9.880;2023-07-13T00:03:12;7.93;;;2.50;;
39958;SDS011;25639;53.634;9.880;2023-07-13T00:05:38;12.00;;;2.63;;
39958;SDS011;25639;53.634;9.880;2023-07-13T00:08:04;5.88;;;2.60;;
39958;SDS011;25639;53.634;9.880;2023-07-13T00:10:29;6.75;;;2.58;;
39958;SDS011;25639;53.634;9.880;2023-07-13T00:12:55;5.80;;;2.50;;
39958;SDS011;25639;53.634;9.880;2023-07-13T00:15:23;7.40;;;2.88;;
39958;SDS011;25639;53.634;9.880;2023-07-13T00:17:51;9.63;;;2.55;;
39958;SDS011;25639;53.634;9.880;2023-07-13T00:20:18;6.05;;;2.40;;
39958;SDS011;25639;53.634;9.880;2023-07-13T00:22:46;3.13;;;2.30;;
39958;SDS011;25639;53.634;9.880;2023-07-13T00:25:12;4.28;;;2.22;;
39958;SDS011;25639;53.634;9.880;2023-07-13T00:27:38;3.15;;;2.45;;
39958;SDS011;25639;53.634;9.880;2023-07-13T00:30:03;3.60;;;2.08;;
39958;SDS011;25639;53.634;9.880;2023-07-13T00:32:30;2.58;;;2.15;;
39958;SDS011;25639;53.634;9.880;2023-07-13T00:34:55;5.40;;;2.55;;
39958;SDS011;25639;53.634;9.880;2023-07-13T00:37:22;4.68;;;2.60;;
39958;SDS011;25639;53.634;9.880;2023-07-13T00:39:48;5.20;;;2.53;;
39958;SDS011;25639;53.634;9.880;2023-07-13T00:42:13;4.95;;;2.50;;
39958;SDS011;25639;53.634;9.880;2023-07-13T00:44:39;4.65;;;2.35;;
39958;SDS011;25639;53.634;9.880;2023-07-13T00:47:05;3.80;;;2.13;;
39958;SDS011;25639;53.634;9.880;2023-07-13T00:49:32;4.78;;;2.35;;
39958;SDS011;25639;53.634;9.880;2023-07-13T00:52:04;3.88;;;2.45;;
39958;SDS011;25639;53.634;9.880;2023-07-13T00:54:36;4.75;;;2.47;;
39958;SDS011;25639;53.634;9.880;2023-07-13T00:57:05;2.97;;;2.00;;
39958;SDS011;25639;53.634;9.880;2023-07-13T00:59:35;4.63;;;2.28;;
39958;SDS011;25639;53.634;9.880;2023-07-13T01:02:02;6.07;;;2.83;;
39958;SDS011;25639;53.634;9.880;2023-07-13T01:04:28;7.20;;;2.85;;
39958;SDS011;25639;53.634;9.880;2023-07-13T01:06:53;5.47;;;2.50;;
39958;SDS011;25639;53.634;9.880;2023-07-13T01:09:19;5.35;;;2.80;;
39958;SDS011;25639;53.634;9.880;2023-07-13T01:11:45;5.03;;;2.67;;
39958;SDS011;25639;53.634;9.880;2023-07-13T01:14:11;9.07;;;3.70;;
39958;SDS011;25639;53.634;9.880;2023-07-13T01:16:37;5.07;;;3.38;;
39958;SDS011;25639;53.634;9.880;2023-07-13T01:19:26;6.43;;;3.15;;
39958;SDS011;25639;53.634;9.880;2023-07-13T01:22:19;6.68;;;3.50;;
39958;SDS011;25639;53.634;9.880;2023-07-13T01:24:47;9.50;;;4.28;;
39958;SDS011;25639;53.634;9.880;2023-07-13T01:27:14;6.72;;;4.53;;
39958;SDS011;25639;53.634;9.880;2023-07-13T01:29:41;11.45;;;4.65;;
39958;SDS011;25639;53.634;9.880;2023-07-13T01:32:09;7.35;;;4.50;;
39958;SDS011;25639;53.634;9.880;2023-07-13T01:34:36;10.55;;;4.93;;
39958;SDS011;25639;53.634;9.880;2023-07-13T01:37:02;12.60;;;5.15;;
39958;SDS011;25639;53.634;9.880;2023-07-13T01:39:28;9.43;;;5.38;;
39958;SDS011;25639;53.634;9.880;2023-07-13T01:41:53;7.63;;;5.15;;
39958;SDS011;25639;53.634;9.880;2023-07-13T01:44:19;13.77;;;6.32;;
39958;SDS011;25639;53.634;9.880;2023-07-13T01:46:44;10.30;;;5.95;;
39958;SDS011;25639;53.634;9.880;2023-07-13T01:49:09;16.75;;;6.38;;
39958;SDS011;25639;53.634;9.880;2023-07-13T01:51:35;12.40;;;6.45;;
39958;SDS011;25639;53.634;9.880;2023-07-13T01:54:00;8.48;;;6.10;;
39958;SDS011;25639;53.634;9.880;2023-07-13T01:56:26;12.88;;;6.28;;
39958;SDS011;25639;53.634;9.880;2023-07-13T01:58:51;11.73;;;5.60;;
39958;SDS011;25639;53.634;9.880;2023-07-13T02:01:17;10.32;;;5.97;;
39958;SDS011;25639;53.634;9.880;2023-07-13T02:03:42;11.45;;;6.75;;
39958;SDS011;25639;53.634;9.880;2023-07-13T02:06:08;12.82;;;6.43;;
39958;SDS011;25639;53.634;9.880;2023-07-13T02:08:33;10.27;;;6.65;;
39958;SDS011;25639;53.634;9.880;2023-07-13T02:10:59;13.65;;;7.00;;
39958;SDS011;25639;53.634;9.880;2023-07-13T02:13:24;15.07;;;7.93;;
39958;SDS011;25639;53.634;9.880;2023-07-13T02:15:50;12.75;;;7.55;;
39958;SDS011;25639;53.634;9.880;2023-07-13T02:18:16;13.52;;;8.57;;
39958;SDS011;25639;53.634;9.880;2023-07-13T02:20:42;17.52;;;9.25;;
39958;SDS011;25639;53.634;9.880;2023-07-13T02:23:08;11.32;;;8.00;;
39958;SDS011;25639;53.634;9.880;2023-07-13T02:25:33;16.95;;;8.85;;
39958;SDS011;25639;53.634;9.880;2023-07-13T02:27:58;16.55;;;9.73;;
39958;SDS011;25639;53.634;9.880;2023-07-13T02:30:23;15.93;;;9.57;;
39958;SDS011;25639;53.634;9.880;2023-07-13T02:32:49;19.15;;;9.63;;
39958;SDS011;25639;53.634;9.880;2023-07-13T02:35:15;14.55;;;8.23;;
39958;SDS011;25639;53.634;9.880;2023-07-13T02:37:40;15.07;;;9.30;;
39958;SDS011;25639;53.634;9.880;2023-07-13T02:40:06;15.57;;;9.65;;
39958;SDS011;25639;53.634;9.880;2023-07-13T02:42:33;16.02;;;9.18;;
39958;SDS011;25639;53.634;9.880;2023-07-13T02:44:59;16.40;;;9.65;;
39958;SDS011;25639;53.634;9.880;2023-07-13T02:47:24;20.23;;;9.65;;
39958;SDS011;25639;53.634;9.880;2023-07-13T02:49:49;18.20;;;9.60;;
39958;SDS011;25639;53.634;9.880;2023-07-13T02:52:15;13.60;;;8.88;;
39958;SDS011;25639;53.634;9.880;2023-07-13T02:54:40;17.30;;;9.70;;
39958;SDS011;25639;53.634;9.880;2023-07-13T02:57:06;16.77;;;9.80;;
39958;SDS011;25639;53.634;9.880;2023-07-13T02:59:31;15.48;;;9.85;;
39958;SDS011;25639;53.634;9.880;2023-07-13T03:01:57;18.65;;;9.93;;
39958;SDS011;25639;53.634;9.880;2023-07-13T03:04:22;20.90;;;10.35;;
39958;SDS011;25639;53.634;9.880;2023-07-13T03:06:48;19.33;;;9.98;;
39958;SDS011;25639;53.634;9.880;2023-07-13T03:09:13;13.43;;;9.25;;
39958;SDS011;25639;53.634;9.880;2023-07-13T03:11:38;19.50;;;9.73;;
39958;SDS011;25639;53.634;9.880;2023-07-13T03:14:04;14.85;;;10.20;;
39958;SDS011;25639;53.634;9.880;2023-07-13T03:16:29;15.90;;;9.05;;
39958;SDS011;25639;53.634;9.880;2023-07-13T03:18:54;18.35;;;10.45;;
39958;SDS011;25639;53.634;9.880;2023-07-13T03:21:20;16.63;;;9.75;;
39958;SDS011;25639;53.634;9.880;2023-07-13T03:23:45;16.45;;;9.38;;
39958;SDS011;25639;53.634;9.880;2023-07-13T03:26:18;17.40;;;8.30;;
39958;SDS011;25639;53.634;9.880;2023-07-13T03:31:11;11.15;;;8.50;;
39958;SDS011;25639;53.634;9.880;2023-07-13T03:33:38;15.88;;;9.80;;
39958;SDS011;25639;53.634;9.880;2023-07-13T03:36:04;16.55;;;8.52;;
39958;SDS011;25639;53.634;9.880;2023-07-13T03:38:31;17.75;;;8.82;;
39958;SDS011;25639;53.634;9.880;2023-07-13T03:40:56;17.67;;;8.82;;
39958;SDS011;25639;53.634;9.880;2023-07-13T03:43:21;14.50;;;8.25;;
39958;SDS011;25639;53.634;9.880;2023-07-13T03:45:47;12.98;;;7.97;;
39958;SDS011;25639;53.634;9.880;2023-07-13T03:48:12;15.48;;;8.32;;
39958;SDS011;25639;53.634;9.880;2023-07-13T03:50:38;16.20;;;8.25;;
39958;SDS011;25639;53.634;9.880;2023-07-13T03:53:04;11.10;;;7.47;;
39958;SDS011;25639;53.634;9.880;2023-07-13T03:55:29;16.23;;;8.65;;
39958;SDS011;25639;53.634;9.880;2023-07-13T03:57:59;15.38;;;8.82;;
39958;SDS011;25639;53.634;9.880;2023-07-13T04:00:45;15.23;;;7.65;;
39958;SDS011;25639;53.634;9.880;2023-07-13T04:03:10;18.15;;;9.27;;
39958;SDS011;25639;53.634;9.880;2023-07-13T04:05:35;11.75;;;8.52;;
39958;SDS011;25639;53.634;9.880;2023-07-13T04:08:01;17.35;;;9.20;;
39958;SDS011;25639;53.634;9.880;2023-07-13T04:10:26;17.95;;;8.55;;
39958;SDS011;25639;53.634;9.880;2023-07-13T04:12:51;15.57;;;8.40;;
39958;SDS011;25639;53.634;9.880;2023-07-13T04:15:17;14.80;;;8.30;;
39958;SDS011;25639;53.634;9.880;2023-07-13T04:17:42;15.50;;;8.13;;
39958;SDS011;25639;53.634;9.880;2023-07-13T04:20:07;20.60;;;8.63;;
39958;SDS011;25639;53.634;9.880;2023-07-13T04:22:33;14.35;;;7.95;;
39958;SDS011;25639;53.634;9.880;2023-07-13T04:24:58;14.20;;;7.88;;
39958;SDS011;25639;53.634;9.880;2023-07-13T04:27:23;18.67;;;8.05;;
39958;SDS011;25639;53.634;9.880;2023-07-13T04:29:48;20.42;;;7.97;;
39958;SDS011;25639;53.634;9.880;2023-07-13T04:32:14;13.15;;;8.05;;
39958;SDS011;25639;53.634;9.880;2023-07-13T04:34:39;17.05;;;8.00;;
39958;SDS011;25639;53.634;9.880;2023-07-13T04:37:04;16.00;;;7.78;;
39958;SDS011;25639;53.634;9.880;2023-07-13T04:39:30;12.55;;;7.38;;
39958;SDS011;25639;53.634;9.880;2023-07-13T04:41:55;12.63;;;6.30;;
39958;SDS011;25639;53.634;9.880;2023-07-13T04:44:20;11.80;;;6.30;;
39958;SDS011;25639;53.634;9.880;2023-07-13T04:46:46;16.50;;;6.68;;
39958;SDS011;25639;53.634;9.880;2023-07-13T04:49:11;12.38;;;6.05;;
39958;SDS011;25639;53.634;9.880;2023-07-13T04:51:36;19.05;;;6.43;;
39958;SDS011;25639;53.634;9.880;2023-07-13T04:54:02;10.52;;;5.15;;
39958;SDS011;25639;53.634;9.880;2023-07-13T04:56:27;13.15;;;5.60;;
39958;SDS011;25639;53.634;9.880;2023-07-13T04:58:52;18.23;;;6.57;;
39958;SDS011;25639;53.634;9.880;2023-07-13T05:01:18;14.40;;;6.55;;
39958;SDS011;25639;53.634;9.880;2023-07-13T05:03:43;15.77;;;6.07;;
39958;SDS011;25639;53.634;9.880;2023-07-13T05:06:08;14.73;;;6.63;;
39958;SDS011;25639;53.634;9.880;2023-07-13T05:08:36;12.57;;;6.30;;
39958;SDS011;25639;53.634;9.880;2023-07-13T05:11:02;12.43;;;6.20;;
39958;SDS011;25639;53.634;9.880;2023-07-13T05:13:29;13.13;;;5.93;;
39958;SDS011;25639;53.634;9.880;2023-07-13T05:15:55;14.38;;;5.63;;
39958;SDS011;25639;53.634;9.880;2023-07-13T05:18:24;12.48;;;5.70;;
39958;SDS011;25639;53.634;9.880;2023-07-13T05:21:00;11.32;;;6.05;;
39958;SDS011;25639;53.634;9.880;2023-07-13T05:23:27;12.82;;;5.90;;
39958;SDS011;25639;53.634;9.880;2023-07-13T05:25:53;12.38;;;5.45;;
39958;SDS011;25639;53.634;9.880;2023-07-13T05:28:18;13.77;;;5.43;;
39958;SDS011;25639;53.634;9.880;2023-07-13T05:30:47;16.08;;;5.40;;
39958;SDS011;25639;53.634;9.880;2023-07-13T05:33:13;13.10;;;5.40;;
39958;SDS011;25639;53.634;9.880;2023-07-13T05:35:39;15.15;;;5.75;;
39958;SDS011;25639;53.634;9.880;2023-07-13T05:38:04;12.10;;;6.07;;
39958;SDS011;25639;53.634;9.880;2023-07-13T05:40:29;21.77;;;6.70;;
39958;SDS011;25639;53.634;9.880;2023-07-13T05:42:55;14.57;;;6.35;;
39958;SDS011;25639;53.634;9.880;2023-07-13T05:45:20;20.52;;;6.25;;
39958;SDS011;25639;53.634;9.880;2023-07-13T05:47:45;16.23;;;6.00;;
39958;SDS011;25639;53.634;9.880;2023-07-13T05:50:10;18.38;;;6.28;;
39958;SDS011;25639;53.634;9.880;2023-07-13T05:52:36;20.80;;;6.72;;
39958;SDS011;25639;53.634;9.880;2023-07-13T05:55:01;13.60;;;5.97;;
39958;SDS011;25639;53.634;9.880;2023-07-13T05:57:26;14.02;;;5.78;;
39958;SDS011;25639;53.634;9.880;2023-07-13T05:59:51;15.52;;;6.80;;
39958;SDS011;25639;53.634;9.880;2023-07-13T06:02:17;19.55;;;6.32;;
39958;SDS011;25639;53.634;9.880;2023-07-13T06:04:42;16.55;;;6.05;;
39958;SDS011;25639;53.634;9.880;2023-07-13T06:07:08;21.67;;;6.28;;
39958;SDS011;25639;53.634;9.880;2023-07-13T06:09:33;17.52;;;5.82;;
39958;SDS011;25639;53.634;9.880;2023-07-13T06:11:58;14.73;;;5.82;;
39958;SDS011;25639;53.634;9.880;2023-07-13T06:14:24;20.88;;;6.60;;
39958;SDS011;25639;53.634;9.880;2023-07-13T06:16:50;13.27;;;4.93;;
39958;SDS011;25639;53.634;9.880;2023-07-13T06:19:15;16.15;;;5.38;;
39958;SDS011;25639;53.634;9.880;2023-07-13T06:21:40;22.20;;;6.30;;
39958;SDS011;25639;53.634;9.880;2023-07-13T06:24:06;14.07;;;5.53;;
39958;SDS011;25639;53.634;9.880;2023-07-13T06:26:31;14.18;;;5.95;;
39958;SDS011;25639;53.634;9.880;2023-07-13T06:28:57;12.65;;;5.18;;
39958;SDS011;25639;53.634;9.880;2023-07-13T06:31:22;13.60;;;5.95;;
39958;SDS011;25639;53.634;9.880;2023-07-13T06:33:47;14.02;;;5.38;;
39958;SDS011;25639;53.634;9.880;2023-07-13T06:36:13;12.43;;;5.50;;
39958;SDS011;25639;53.634;9.880;2023-07-13T06:38:38;14.88;;;5.25;;
39958;SDS011;25639;53.634;9.880;2023-07-13T06:41:04;11.55;;;5.15;;
39958;SDS011;25639;53.634;9.880;2023-07-13T06:43:30;13.82;;;4.95;;
39958;SDS011;25639;53.634;9.880;2023-07-13T06:45:56;12.93;;;5.22;;
39958;SDS011;25639;53.634;9.880;2023-07-13T06:48:22;12.82;;;4.72;;
39958;SDS011;25639;53.634;9.880;2023-07-13T06:50:48;18.92;;;5.60;;
39958;SDS011;25639;53.634;9.880;2023-07-13T06:53:17;17.38;;;4.93;;
39958;SDS011;25639;53.634;9.880;2023-07-13T06:55:43;14.13;;;4.72;;
39958;SDS011;25639;53.634;9.880;2023-07-13T06:58:09;17.30;;;4.72;;
39958;SDS011;25639;53.634;9.880;2023-07-13T07:00:35;16.38;;;4.63;;
39958;SDS011;25639;53.634;9.880;2023-07-13T07:03:00;14.93;;;4.75;;
39958;SDS011;25639;53.634;9.880;2023-07-13T07:05:25;19.25;;;4.78;;
39958;SDS011;25639;53.634;9.880;2023-07-13T07:07:51;16.20;;;4.72;;
39958;SDS011;25639;53.634;9.880;2023-07-13T07:10:19;17.88;;;4.60;;
39958;SDS011;25639;53.634;9.880;2023-07-13T07:12:45;13.52;;;3.88;;
39958;SDS011;25639;53.634;9.880;2023-07-13T07:15:10;15.38;;;3.78;;
39958;SDS011;25639;53.634;9.880;2023-07-13T07:17:36;10.98;;;3.55;;
39958;SDS011;25639;53.634;9.880;2023-07-13T07:20:02;13.15;;;4.07;;
39958;SDS011;25639;53.634;9.880;2023-07-13T07:22:28;17.02;;;3.67;;
39958;SDS011;25639;53.634;9.880;2023-07-13T07:24:55;15.38;;;4.32;;
39958;SDS011;25639;53.634;9.880;2023-07-13T07:27:20;14.00;;;3.67;;
39958;SDS011;25639;53.634;9.880;2023-07-13T07:29:46;15.80;;;4.00;;
39958;SDS011;25639;53.634;9.880;2023-07-13T07:32:11;15.98;;;3.70;;
39958;SDS011;25639;53.634;9.880;2023-07-13T07:34:36;15.45;;;3.72;;
39958;SDS011;25639;53.634;9.880;2023-07-13T07:37:02;13.43;;;3.35;;
39958;SDS011;25639;53.634;9.880;2023-07-13T07:39:28;11.50;;;3.55;;
39958;SDS011;25639;53.634;9.880;2023-07-13T07:41:53;12.65;;;3.45;;
39958;SDS011;25639;53.634;9.880;2023-07-13T07:44:18;16.77;;;3.45;;
39958;SDS011;25639;53.634;9.880;2023-07-13T07:46:44;9.98;;;3.10;;
39958;SDS011;25639;53.634;9.880;2023-07-13T07:49:09;13.88;;;3.08;;
39958;SDS011;25639;53.634;9.880;2023-07-13T07:51:35;14.18;;;3.25;;
39958;SDS011;25639;53.634;9.880;2023-07-13T07:54:01;16.60;;;3.40;;
39958;SDS011;25639;53.634;9.880;2023-07-13T07:56:26;12.90;;;3.22;;
39958;SDS011;25639;53.634;9.880;2023-07-13T07:58:51;13.07;;;3.28;;
39958;SDS011;25639;53.634;9.880;2023-07-13T08:01:17;11.85;;;3.10;;
39958;SDS011;25639;53.634;9.880;2023-07-13T08:03:42;19.08;;;3.50;;
39958;SDS011;25639;53.634;9.880;2023-07-13T08:06:07;17.38;;;3.65;;
39958;SDS011;25639;53.634;9.880;2023-07-13T08:08:33;12.43;;;3.38;;
39958;SDS011;25639;53.634;9.880;2023-07-13T08:11:02;10.65;;;3.20;;
39958;SDS011;25639;53.634;9.880;2023-07-13T08:13:29;11.82;;;3.70;;
39958;SDS011;25639;53.634;9.880;2023-07-13T08:15:55;11.18;;;3.00;;
39958;SDS011;25639;53.634;9.880;2023-07-13T08:18:20;13.25;;;2.95;;
39958;SDS011;25639;53.634;9.880;2023-07-13T08:20:45;10.77;;;2.70;;
39958;SDS011;25639;53.634;9.880;2023-07-13T08:23:11;10.82;;;2.72;;
39958;SDS011;25639;53.634;9.880;2023-07-13T08:25:36;10.23;;;3.00;;
39958;SDS011;25639;53.634;9.880;2023-07-13T08:28:02;16.17;;;3.13;;
39958;SDS011;25639;53.634;9.880;2023-07-13T08:30:28;9.85;;;2.95;;
39958;SDS011;25639;53.634;9.880;2023-07-13T08:32:54;9.52;;;2.85;;
39958;SDS011;25639;53.634;9.880;2023-07-13T08:35:19;11.40;;;3.03;;
39958;SDS011;25639;53.634;9.880;2023-07-13T08:37:44;9.85;;;2.67;;
39958;SDS011;25639;53.634;9.880;2023-07-13T08:40:10;12.00;;;3.35;;
39958;SDS011;25639;53.634;9.880;2023-07-13T08:42:37;13.68;;;3.50;;
39958;SDS011;25639;53.634;9.880;2023-07-13T08:48:10;9.85;;;3.05;;
39958;SDS011;25639;53.634;9.880;2023-07-13T08:50:48;12.73;;;3.38;;
39958;SDS011;25639;53.634;9.880;2023-07-13T08:53:19;10.40;;;2.95;;
39958;SDS011;25639;53.634;9.880;2023-07-13T08:55:47;8.38;;;2.88;;
39958;SDS011;25639;53.634;9.880;2023-07-13T08:58:16;9.10;;;2.45;;
39958;SDS011;25639;53.634;9.880;2023-07-13T09:00:49;10.20;;;2.53;;
39958;SDS011;25639;53.634;9.880;2023-07-13T09:03:44;7.63;;;2.30;;
39958;SDS011;25639;53.634;9.880;2023-07-13T09:06:14;9.70;;;2.58;;
39958;SDS011;25639;53.634;9.880;2023-07-13T09:08:46;6.53;;;2.20;;
39958;SDS011;25639;53.634;9.880;2023-07-13T09:14:36;9.48;;;2.63;;
39958;SDS011;25639;53.634;9.880;2023-07-13T09:17:47;11.70;;;2.97;;
39958;SDS011;25639;53.634;9.880;2023-07-13T09:20:21;6.82;;;2.38;;
39958;SDS011;25639;53.634;9.880;2023-07-13T09:22:54;9.02;;;2.40;;
39958;SDS011;25639;53.634;9.880;2023-07-13T09:25:27;10.02;;;2.20;;
39958;SDS011;25639;53.634;9.880;2023-07-13T09:27:56;9.00;;;2.60;;
39958;SDS011;25639;53.634;9.880;2023-07-13T09:33:09;11.95;;;2.63;;
39958;SDS011;25639;53.634;9.880;2023-07-13T09:35:34;9.80;;;2.50;;
39958;SDS011;25639;53.634;9.880;2023-07-13T09:38:16;6.05;;;2.00;;
39958;SDS011;25639;53.634;9.880;2023-07-13T09:40:46;9.98;;;2.70;;
39958;SDS011;25639;53.634;9.880;2023-07-13T09:43:21;8.73;;;2.15;;
39958;SDS011;25639;53.634;9.880;2023-07-13T09:45:47;8.00;;;2.38;;
39958;SDS011;25639;53.634;9.880;2023-07-13T09:48:13;10.45;;;2.60;;
39958;SDS011;25639;53.634;9.880;2023-07-13T09:50:40;6.95;;;2.35;;
39958;SDS011;25639;53.634;9.880;2023-07-13T09:53:11;11.38;;;2.45;;
39958;SDS011;25639;53.634;9.880;2023-07-13T09:55:38;5.75;;;2.42;;
39958;SDS011;25639;53.634;9.880;2023-07-13T09:58:09;9.88;;;2.38;;
39958;SDS011;25639;53.634;9.880;2023-07-13T10:00:37;12.35;;;2.80;;
39958;SDS011;25639;53.634;9.880;2023-07-13T10:03:26;13.45;;;2.90;;
39958;SDS011;25639;53.634;9.880;2023-07-13T10:06:00;14.88;;;2.40;;
39958;SDS011;25639;53.634;9.880;2023-07-13T10:08:36;10.00;;;2.33;;
39958;SDS011;25639;53.634;9.880;2023-07-13T10:11:14;6.50;;;2.22;;
39958;SDS011;25639;53.634;9.880;2023-07-13T10:13:46;9.95;;;2.15;;
39958;SDS011;25639;53.634;9.880;2023-07-13T10:16:16;9.60;;;2.72;;
39958;SDS011;25639;53.634;9.880;2023-07-13T10:21:17;7.00;;;1.88;;
39958;SDS011;25639;53.634;9.880;2023-07-13T10:23:47;5.18;;;1.65;;
39958;SDS011;25639;53.634;9.880;2023-07-13T10:26:18;4.43;;;1.70;;
39958;SDS011;25639;53.634;9.880;2023-07-13T10:28:51;7.95;;;1.98;;
39958;SDS011;25639;53.634;9.880;2023-07-13T10:31:20;4.03;;;1.80;;
39958;SDS011;25639;53.634;9.880;2023-07-13T10:33:46;6.22;;;1.83;;
39958;SDS011;25639;53.634;9.880;2023-07-13T10:38:37;7.80;;;2.07;;
39958;SDS011;25639;53.634;9.880;2023-07-13T10:41:03;5.20;;;1.80;;
39958;SDS011;25639;53.634;9.880;2023-07-13T10:43:34;5.55;;;1.83;;
39958;SDS011;25639;53.634;9.880;2023-07-13T10:46:03;4.43;;;1.48;;
39958;SDS011;25639;53.634;9.880;2023-07-13T10:48:35;5.68;;;2.03;;
39958;SDS011;25639;53.634;9.880;2023-07-13T10:51:02;4.18;;;1.75;;
39958;SDS011;25639;53.634;9.880;2023-07-13T10:53:32;4.00;;;1.70;;
39958;SDS011;25639;53.634;9.880;2023-07-13T10:56:00;4.65;;;1.80;;
39958;SDS011;25639;53.634;9.880;2023-07-13T10:58:37;8.43;;;2.25;;
39958;SDS011;25639;53.634;9.880;2023-07-13T11:01:07;7.28;;;2.15;;
39958;SDS011;25639;53.634;9.880;2023-07-13T11:03:36;6.10;;;1.80;;
39958;SDS011;25639;53.634;9.880;2023-07-13T11:06:12;3.90;;;1.80;;
39958;SDS011;25639;53.634;9.880;2023-07-13T11:18:40;8.43;;;1.90;;
39958;SDS011;25639;53.634;9.880;2023-07-13T11:21:20;9.63;;;2.08;;
39958;SDS011;25639;53.634;9.880;2023-07-13T11:23:54;7.07;;;1.98;;
39958;SDS011;25639;53.634;9.880;2023-07-13T11:26:50;6.00;;;1.67;;
39958;SDS011;25639;53.634;9.880;2023-07-13T11:31:42;7.32;;;1.75;;
39958;SDS011;25639;53.634;9.880;2023-07-13T11:34:23;5.90;;;1.48;;
39958;SDS011;25639;53.634;9.880;2023-07-13T11:36:53;8.48;;;1.67;;
39958;SDS011;25639;53.634;9.880;2023-07-13T11:39:21;5.43;;;1.33;;
39958;SDS011;25639;53.634;9.880;2023-07-13T11:41:56;5.68;;;1.55;;
39958;SDS011;25639;53.634;9.880;2023-07-13T11:44:25;5.18;;;1.45;;
39958;SDS011;25639;53.634;9.880;2023-07-13T11:46:53;3.72;;;1.30;;
39958;SDS011;25639;53.634;9.880;2023-07-13T11:49:21;5.10;;;1.55;;
39958;SDS011;25639;53.634;9.880;2023-07-13T11:51:48;3.15;;;1.20;;
39958;SDS011;25639;53.634;9.880;2023-07-13T11:56:59;7.50;;;1.60;;
39958;SDS011;25639;53.634;9.880;2023-07-13T11:59:27;9.88;;;1.65;;
39958;SDS011;25639;53.634;9.880;2023-07-13T12:01:55;5.38;;;1.52;;
39958;SDS011;25639;53.634;9.880;2023-07-13T12:04:25;6.22;;;1.67;;
39958;SDS011;25639;53.634;9.880;2023-07-13T12:07:05;6.53;;;1.55;;
39958;SDS011;25639;53.634;9.880;2023-07-13T12:09:40;5.28;;;1.30;;
39958;SDS011;25639;53.634;9.880;2023-07-13T12:12:10;4.72;;;1.70;;
39958;SDS011;25639;53.634;9.880;2023-07-13T12:14:37;8.57;;;1.60;;
39958;SDS011;25639;53.634;9.880;2023-07-13T12:17:04;4.55;;;1.73;;
39958;SDS011;25639;53.634;9.880;2023-07-13T12:19:36;10.65;;;2.30;;
39958;SDS011;25639;53.634;9.880;2023-07-13T12:22:01;8.77;;;2.05;;
39958;SDS011;25639;53.634;9.880;2023-07-13T12:24:27;13.20;;;2.58;;
39958;SDS011;25639;53.634;9.880;2023-07-13T12:29:21;6.47;;;2.13;;
39958;SDS011;25639;53.634;9.880;2023-07-13T12:31:47;10.95;;;1.80;;
39958;SDS011;25639;53.634;9.880;2023-07-13T12:34:15;7.30;;;2.10;;
39958;SDS011;25639;53.634;9.880;2023-07-13T12:39:32;6.80;;;2.30;;
39958;SDS011;25639;53.634;9.880;2023-07-13T12:44:45;9.38;;;2.80;;
39958;SDS011;25639;53.634;9.880;2023-07-13T12:47:12;8.52;;;2.53;;
39958;SDS011;25639;53.634;9.880;2023-07-13T12:49:41;7.18;;;2.20;;
39958;SDS011;25639;53.634;9.880;2023-07-13T12:52:21;4.43;;;1.80;;
39958;SDS011;25639;53.634;9.880;2023-07-13T12:54:58;3.85;;;1.95;;
39958;SDS011;25639;53.634;9.880;2023-07-13T12:57:28;3.65;;;1.60;;
39958;SDS011;25639;53.634;9.880;2023-07-13T12:59:54;4.20;;;1.52;;
39958;SDS011;25639;53.634;9.880;2023-07-13T13:02:30;4.03;;;1.65;;
39958;SDS011;25639;53.634;9.880;2023-07-13T13:04:58;5.18;;;1.77;;
39958;SDS011;25639;53.634;9.880;2023-07-13T13:07:24;5.55;;;1.98;;
39958;SDS011;25639;53.634;9.880;2023-07-13T13:09:50;3.75;;;1.65;;
39958;SDS011;25639;53.634;9.880;2023-07-13T13:12:18;4.50;;;1.60;;
39958;SDS011;25639;53.634;9.880;2023-07-13T13:14:43;5.47;;;1.90;;
39958;SDS011;25639;53.634;9.880;2023-07-13T13:17:15;3.80;;;1.52;;
39958;SDS011;25639;53.634;9.880;2023-07-13T13:19:44;4.60;;;1.80;;
39958;SDS011;25639;53.634;9.880;2023-07-13T13:22:12;5.65;;;1.77;;
39958;SDS011;25639;53.634;9.880;2023-07-13T13:24:37;5.85;;;1.70;;
39958;SDS011;25639;53.634;9.880;2023-07-13T13:27:03;3.00;;;1.60;;
39958;SDS011;25639;53.634;9.880;2023-07-13T13:29:28;3.47;;;1.80;;
39958;SDS011;25639;53.634;9.880;2023-07-13T13:31:56;4.47;;;1.40;;
39958;SDS011;25639;53.634;9.880;2023-07-13T13:34:21;5.88;;;1.48;;
39958;SDS011;25639;53.634;9.880;2023-07-13T13:36:49;5.68;;;1.67;;
39958;SDS011;25639;53.634;9.880;2023-07-13T13:39:25;2.67;;;1.50;;
39958;SDS011;25639;53.634;9.880;2023-07-13T13:41:56;7.55;;;1.92;;
39958;SDS011;25639;53.634;9.880;2023-07-13T13:44:21;3.95;;;1.60;;
39958;SDS011;25639;53.634;9.880;2023-07-13T13:46:48;4.68;;;1.50;;
39958;SDS011;25639;53.634;9.880;2023-07-13T13:49:19;2.13;;;1.70;;
39958;SDS011;25639;53.634;9.880;2023-07-13T13:51:47;4.40;;;1.63;;
39958;SDS011;25639;53.634;9.880;2023-07-13T13:54:14;4.75;;;1.73;;
39958;SDS011;25639;53.634;9.880;2023-07-13T13:56:41;3.15;;;1.75;;
39958;SDS011;25639;53.634;9.880;2023-07-13T13:59:08;4.93;;;1.70;;
39958;SDS011;25639;53.634;9.880;2023-07-13T14:01:34;3.45;;;1.90;;
39958;SDS011;25639;53.634;9.880;2023-07-13T14:04:00;3.28;;;1.55;;
39958;SDS011;25639;53.634;9.880;2023-07-13T14:06:25;3.25;;;1.60;;
39958;SDS011;25639;53.634;9.880;2023-07-13T14:08:54;2.88;;;1.75;;
39958;SDS011;25639;53.634;9.880;2023-07-13T14:11:20;3.88;;;1.88;;
39958;SDS011;25639;53.634;9.880;2023-07-13T14:13:57;4.80;;;1.45;;
39958;SDS011;25639;53.634;9.880;2023-07-13T14:16:31;3.10;;;1.95;;
39958;SDS011;25639;53.634;9.880;2023-07-13T14:21:25;4.43;;;1.63;;
39958;SDS011;25639;53.634;9.880;2023-07-13T14:23:52;4.22;;;2.15;;
39958;SDS011;25639;53.634;9.880;2023-07-13T14:26:19;2.95;;;1.90;;
39958;SDS011;25639;53.634;9.880;2023-07-13T14:28:48;5.93;;;2.00;;
39958;SDS011;25639;53.634;9.880;2023-07-13T14:31:15;4.28;;;1.80;;
39958;SDS011;25639;53.634;9.880;2023-07-13T14:33:42;5.13;;;1.85;;
39958;SDS011;25639;53.634;9.880;2023-07-13T14:38:57;6.88;;;2.33;;
39958;SDS011;25639;53.634;9.880;2023-07-13T14:41:23;3.42;;;1.92;;
39958;SDS011;25639;53.634;9.880;2023-07-13T14:43:48;6.63;;;2.28;;
39958;SDS011;25639;53.634;9.880;2023-07-13T14:46:31;5.50;;;2.40;;
39958;SDS011;25639;53.634;9.880;2023-07-13T14:49:01;8.18;;;2.80;;
39958;SDS011;25639;53.634;9.880;2023-07-13T14:51:34;4.22;;;2.17;;
39958;SDS011;25639;53.634;9.880;2023-07-13T14:54:01;7.93;;;2.50;;
39958;SDS011;25639;53.634;9.880;2023-07-13T14:56:29;4.47;;;2.00;;
39958;SDS011;25639;53.634;9.880;2023-07-13T14:58:55;6.25;;;2.10;;
39958;SDS011;25639;53.634;9.880;2023-07-13T15:01:20;4.22;;;2.38;;
39958;SDS011;25639;53.634;9.880;2023-07-13T15:03:48;5.97;;;2.53;;
39958;SDS011;25639;53.634;9.880;2023-07-13T15:06:15;4.03;;;2.30;;
39958;SDS011;25639;53.634;9.880;2023-07-13T15:08:42;6.32;;;2.30;;
39958;SDS011;25639;53.634;9.880;2023-07-13T15:11:07;5.18;;;1.95;;
39958;SDS011;25639;53.634;9.880;2023-07-13T15:13:36;3.38;;;1.58;;
39958;SDS011;25639;53.634;9.880;2023-07-13T15:16:03;5.07;;;1.70;;
39958;SDS011;25639;53.634;9.880;2023-07-13T15:18:29;4.63;;;1.60;;
39958;SDS011;25639;53.634;9.880;2023-07-13T15:20:55;8.02;;;1.95;;
39958;SDS011;25639;53.634;9.880;2023-07-13T15:23:22;5.53;;;2.15;;
39958;SDS011;25639;53.634;9.880;2023-07-13T15:25:47;4.15;;;1.35;;
39958;SDS011;25639;53.634;9.880;2023-07-13T15:28:13;5.30;;;1.65;;